createdAt,value
2018-07-13T00:00:10.257Z,0.00
2018-07-13T00:01:10.254Z,0.00
2018-07-13T00:02:10.249Z,0.00
2018-07-13T00:03:10.248Z,0.00
2018-07-13T00:04:10.244Z,0.00
2018-07-13T00:05:10.296Z,0.00
2018-07-13T00:06:10.238Z,0.00
2018-07-13T00:07:10.236Z,0.00
2018-07-13T00:08:10.246Z,0.00
2018-07-13T00:09:10.234Z,0.00
2018-07-13T00:10:10.227Z,0.00
2018-07-13T00:11:10.223Z,0.00
2018-07-13T00:12:10.217Z,0.00
2018-07-13T00:13:10.216Z,0.00
2018-07-13T00:14:10.211Z,0.00
2018-07-13T00:15:10.262Z,0.00
2018-07-13T00:16:10.205Z,0.00
2018-07-13T00:17:10.207Z,0.00
2018-07-13T00:18:10.209Z,0.00
2018-07-13T00:19:10.200Z,0.00
2018-07-13T00:20:10.202Z,0.00
2018-07-13T00:21:10.198Z,0.00
2018-07-13T00:22:10.185Z,0.00
2018-07-13T00:23:10.188Z,0.00
2018-07-13T00:24:10.179Z,0.00
2018-07-13T00:25:10.235Z,0.00
2018-07-13T00:26:10.172Z,0.00
2018-07-13T00:27:10.168Z,0.00
2018-07-13T00:28:10.166Z,0.00
2018-07-13T00:29:10.165Z,0.00
2018-07-13T00:30:10.173Z,0.00
2018-07-13T00:31:10.152Z,0.00
2018-07-13T00:32:10.158Z,0.00
2018-07-13T00:33:10.153Z,0.00
2018-07-13T00:34:10.143Z,0.00
2018-07-13T00:35:10.182Z,0.00
2018-07-13T00:36:10.137Z,0.00
2018-07-13T00:37:10.138Z,0.00
2018-07-13T00:38:10.131Z,0.00
2018-07-13T00:39:10.140Z,0.00
2018-07-13T00:40:10.127Z,0.00
2018-07-13T00:41:10.124Z,0.00
2018-07-13T00:42:10.114Z,0.00
2018-07-13T00:43:10.118Z,0.00
2018-07-13T00:44:10.116Z,0.00
2018-07-13T00:45:10.167Z,0.00
2018-07-13T00:46:10.109Z,0.00
2018-07-13T00:47:10.107Z,0.00
2018-07-13T00:48:10.094Z,0.00
2018-07-13T00:49:10.090Z,0.00
2018-07-13T00:50:10.100Z,0.00
2018-07-13T00:51:10.084Z,0.00
2018-07-13T00:52:10.082Z,0.00
2018-07-13T00:53:10.082Z,0.00
2018-07-13T00:54:10.078Z,0.00
2018-07-13T00:55:10.079Z,0.00
2018-07-13T00:56:10.071Z,0.00
2018-07-13T00:57:10.077Z,0.00
2018-07-13T00:58:10.060Z,0.00
2018-07-13T00:59:10.079Z,0.00
2018-07-13T01:00:10.072Z,0.00
2018-07-13T01:01:10.049Z,0.00
2018-07-13T01:02:10.055Z,0.00
2018-07-13T01:03:10.042Z,0.00
2018-07-13T01:04:10.037Z,0.00
2018-07-13T01:05:10.044Z,0.00
2018-07-13T01:06:10.033Z,0.00
2018-07-13T01:07:10.027Z,0.00
2018-07-13T01:08:10.024Z,0.00
2018-07-13T01:09:10.028Z,0.00
2018-07-13T01:10:10.020Z,0.00
2018-07-13T01:11:10.023Z,0.00
2018-07-13T01:12:10.010Z,0.00
2018-07-13T01:13:10.007Z,0.00
2018-07-13T01:14:10.006Z,0.00
2018-07-13T01:15:10.012Z,0.00
2018-07-13T01:16:10.006Z,0.00
2018-07-13T01:17:09.997Z,0.00
2018-07-13T01:18:09.990Z,0.00
2018-07-13T01:19:10.002Z,0.00
2018-07-13T01:20:09.981Z,0.00
2018-07-13T01:21:09.979Z,0.00
2018-07-13T01:22:10.018Z,0.00
2018-07-13T01:23:10.054Z,0.00
2018-07-13T01:24:09.969Z,0.00
2018-07-13T01:25:10.104Z,0.00
2018-07-13T01:26:09.965Z,0.00
2018-07-13T01:27:10.028Z,0.00
2018-07-13T01:28:10.020Z,0.00
2018-07-13T01:29:09.954Z,0.00
2018-07-13T01:30:09.947Z,0.00
2018-07-13T01:31:09.943Z,0.00
2018-07-13T01:32:09.992Z,0.00
2018-07-13T01:33:09.937Z,0.00
2018-07-13T01:34:09.933Z,0.00
2018-07-13T01:35:09.929Z,0.00
2018-07-13T01:36:09.926Z,0.00
2018-07-13T01:37:09.929Z,0.00
2018-07-13T01:38:09.918Z,0.00
2018-07-13T01:39:09.914Z,0.00
2018-07-13T01:40:09.911Z,0.00
2018-07-13T01:41:09.909Z,0.00
2018-07-13T01:42:09.911Z,0.00
2018-07-13T01:43:09.898Z,0.00
2018-07-13T01:44:09.907Z,0.00
2018-07-13T01:45:09.892Z,0.00
2018-07-13T01:46:09.894Z,0.00
2018-07-13T01:47:09.889Z,0.00
2018-07-13T01:48:09.885Z,0.00
2018-07-13T01:49:09.884Z,0.00
2018-07-13T01:50:09.886Z,0.00
2018-07-13T01:51:09.878Z,0.00
2018-07-13T01:52:09.920Z,0.00
2018-07-13T01:53:09.865Z,0.00
2018-07-13T01:54:09.866Z,0.00
2018-07-13T01:55:09.868Z,0.00
2018-07-13T01:56:09.875Z,0.00
2018-07-13T01:57:09.855Z,0.00
2018-07-13T01:58:09.853Z,0.00
2018-07-13T01:59:09.839Z,0.00
2018-07-13T02:00:09.837Z,0.00
2018-07-13T02:01:09.844Z,0.00
2018-07-13T02:02:09.891Z,0.00
2018-07-13T02:03:09.824Z,0.00
2018-07-13T02:04:09.825Z,0.00
2018-07-13T02:05:09.818Z,0.00
2018-07-13T02:06:09.813Z,0.00
2018-07-13T02:07:09.809Z,0.00
2018-07-13T02:08:09.818Z,0.00
2018-07-13T02:09:09.837Z,0.00
2018-07-13T02:10:09.796Z,0.00
2018-07-13T02:11:09.798Z,0.00
2018-07-13T02:12:09.787Z,0.00
2018-07-13T02:13:09.789Z,0.00
2018-07-13T02:14:09.789Z,0.00
2018-07-13T02:15:09.776Z,0.00
2018-07-13T02:16:09.788Z,0.00
2018-07-13T02:17:09.774Z,0.00
2018-07-13T02:18:09.765Z,0.00
2018-07-13T02:19:09.805Z,0.00
2018-07-13T02:20:09.756Z,0.00
2018-07-13T02:21:09.757Z,0.00
2018-07-13T02:22:09.749Z,0.00
2018-07-13T02:23:09.744Z,0.00
2018-07-13T02:24:09.744Z,0.00
2018-07-13T02:25:09.736Z,0.00
2018-07-13T02:26:09.740Z,0.00
2018-07-13T02:27:09.737Z,0.00
2018-07-13T02:28:09.723Z,0.00
2018-07-13T02:29:09.771Z,0.00
2018-07-13T02:30:09.727Z,0.00
2018-07-13T02:31:09.712Z,0.00
2018-07-13T02:32:09.709Z,0.00
2018-07-13T02:33:09.713Z,0.00
2018-07-13T02:34:09.705Z,0.00
2018-07-13T02:35:09.700Z,0.00
2018-07-13T02:36:09.706Z,0.00
2018-07-13T02:37:09.688Z,0.00
2018-07-13T02:38:09.694Z,0.00
2018-07-13T02:39:09.792Z,0.00
2018-07-13T02:40:09.678Z,0.00
2018-07-13T02:41:09.681Z,0.00
2018-07-13T02:42:09.669Z,0.00
2018-07-13T02:43:09.679Z,0.00
2018-07-13T02:44:09.661Z,0.00
2018-07-13T02:45:09.656Z,0.00
2018-07-13T02:46:09.694Z,0.00
2018-07-13T02:47:09.656Z,0.00
2018-07-13T02:48:09.645Z,0.00
2018-07-13T02:49:09.640Z,0.00
2018-07-13T02:50:09.637Z,0.00
2018-07-13T02:51:09.632Z,0.00
2018-07-13T02:52:09.627Z,0.00
2018-07-13T02:53:09.629Z,0.00
2018-07-13T02:54:09.621Z,0.00
2018-07-13T02:55:09.616Z,0.00
2018-07-13T02:56:09.620Z,0.00
2018-07-13T02:57:09.609Z,0.00
2018-07-13T02:58:09.604Z,0.00
2018-07-13T02:59:09.607Z,0.00
2018-07-13T03:00:09.608Z,0.00
2018-07-13T03:01:09.598Z,0.00
2018-07-13T03:02:09.590Z,0.00
2018-07-13T03:03:09.641Z,0.00
2018-07-13T03:04:09.588Z,0.00
2018-07-13T03:05:09.573Z,4.00
2018-07-13T03:06:09.571Z,4.00
2018-07-13T03:07:09.570Z,0.00
2018-07-13T03:08:09.563Z,0.00
2018-07-13T03:09:09.556Z,4.00
2018-07-13T03:10:09.568Z,0.00
2018-07-13T03:11:09.548Z,4.00
2018-07-13T03:12:09.543Z,0.00
2018-07-13T03:13:09.574Z,4.00
2018-07-13T03:14:09.536Z,4.00
2018-07-13T03:15:09.534Z,4.00
2018-07-13T03:16:09.535Z,8.00
2018-07-13T03:17:09.522Z,8.00
2018-07-13T03:18:09.519Z,8.00
2018-07-13T03:19:09.551Z,12.00
2018-07-13T03:20:09.509Z,12.00
2018-07-13T03:21:09.508Z,12.00
2018-07-13T03:22:09.537Z,16.00
2018-07-13T03:23:09.538Z,16.00
2018-07-13T03:24:09.493Z,20.00
2018-07-13T03:25:09.487Z,20.00
2018-07-13T03:26:09.485Z,24.00
2018-07-13T03:27:09.493Z,24.00
2018-07-13T03:28:09.487Z,32.00
2018-07-13T03:29:09.470Z,32.00
2018-07-13T03:30:09.488Z,36.00
2018-07-13T03:31:09.487Z,40.00
2018-07-13T03:32:09.464Z,44.00
2018-07-13T03:33:09.456Z,48.00
2018-07-13T03:34:09.450Z,52.00
2018-07-13T03:35:09.455Z,60.00
2018-07-13T03:36:09.448Z,64.00
2018-07-13T03:37:09.440Z,72.00
2018-07-13T03:38:09.440Z,80.00
2018-07-13T03:39:09.427Z,84.00
2018-07-13T03:40:09.455Z,92.00
2018-07-13T03:41:09.428Z,100.00
2018-07-13T03:42:09.417Z,112.00
2018-07-13T03:43:09.413Z,120.00
2018-07-13T03:44:09.413Z,128.00
2018-07-13T03:45:09.400Z,140.00
2018-07-13T03:46:09.397Z,148.00
2018-07-13T03:47:09.402Z,156.00
2018-07-13T03:48:09.390Z,168.00
2018-07-13T03:49:09.389Z,180.00
2018-07-13T03:50:09.382Z,192.00
2018-07-13T03:51:09.384Z,204.00
2018-07-13T03:52:09.371Z,220.00
2018-07-13T03:53:09.368Z,236.00
2018-07-13T03:54:09.408Z,252.00
2018-07-13T03:55:09.360Z,264.00
2018-07-13T03:56:09.354Z,284.00
2018-07-13T03:57:09.371Z,300.00
2018-07-13T03:58:09.348Z,320.00
2018-07-13T03:59:09.341Z,340.00
2018-07-13T04:00:09.341Z,364.00
2018-07-13T04:01:09.338Z,388.00
2018-07-13T04:02:09.339Z,408.00
2018-07-13T04:03:09.323Z,432.00
2018-07-13T04:04:09.327Z,460.00
2018-07-13T04:05:09.313Z,484.00
2018-07-13T04:06:09.313Z,512.00
2018-07-13T04:07:09.551Z,540.00
2018-07-13T04:08:09.302Z,568.00
2018-07-13T04:09:09.295Z,600.00
2018-07-13T04:10:09.350Z,632.00
2018-07-13T04:11:09.300Z,664.00
2018-07-13T04:12:09.294Z,696.00
2018-07-13T04:13:09.278Z,732.00
2018-07-13T04:14:09.276Z,764.00
2018-07-13T04:15:09.269Z,800.00
2018-07-13T04:16:09.262Z,840.00
2018-07-13T04:17:09.267Z,876.00
2018-07-13T04:18:09.260Z,916.00
2018-07-13T04:19:09.257Z,956.00
2018-07-13T04:20:09.248Z,996.00
2018-07-13T04:21:09.249Z,1036.00
2018-07-13T04:22:09.238Z,1076.00
2018-07-13T04:23:09.234Z,1124.00
2018-07-13T04:24:09.250Z,1172.00
2018-07-13T04:25:09.227Z,1224.00
2018-07-13T04:26:09.220Z,2356.00
2018-07-13T04:27:09.216Z,7372.00
2018-07-13T04:28:09.214Z,10752.00
2018-07-13T04:29:09.207Z,11840.00
2018-07-13T04:30:09.214Z,12512.00
2018-07-13T04:31:09.207Z,13120.00
2018-07-13T04:32:09.207Z,14432.00
2018-07-13T04:33:09.203Z,15264.00
2018-07-13T04:34:09.283Z,15072.00
2018-07-13T04:35:09.182Z,15488.00
2018-07-13T04:36:09.179Z,16192.00
2018-07-13T04:37:09.187Z,16864.00
2018-07-13T04:38:09.176Z,17440.00
2018-07-13T04:39:09.180Z,18464.00
2018-07-13T04:40:09.180Z,19392.00
2018-07-13T04:41:09.262Z,20320.00
2018-07-13T04:42:09.171Z,21984.00
2018-07-13T04:43:09.183Z,22368.00
2018-07-13T04:44:09.171Z,22368.00
2018-07-13T04:45:09.171Z,23648.00
2018-07-13T04:46:09.175Z,24832.00
2018-07-13T04:47:09.169Z,26208.00
2018-07-13T04:48:09.172Z,26272.00
2018-07-13T04:49:09.174Z,25728.00
2018-07-13T04:50:09.242Z,25888.00
2018-07-13T04:51:09.175Z,26240.00
2018-07-13T04:52:09.180Z,26528.00
2018-07-13T04:53:09.173Z,26304.00
2018-07-13T04:54:09.175Z,26880.00
2018-07-13T04:55:09.177Z,26912.00
2018-07-13T04:56:09.179Z,26336.00
2018-07-13T04:57:09.188Z,28960.00
2018-07-13T04:58:09.198Z,32160.00
2018-07-13T04:59:09.200Z,31104.00
2018-07-13T05:00:09.191Z,32672.00
2018-07-13T05:01:09.195Z,33632.00
2018-07-13T05:02:09.199Z,33280.00
2018-07-13T05:03:09.207Z,33600.00
2018-07-13T05:04:09.207Z,35424.00
2018-07-13T05:05:09.212Z,35008.00
2018-07-13T05:06:09.265Z,35136.00
2018-07-13T05:07:09.221Z,36288.00
2018-07-13T05:08:09.225Z,36128.00
2018-07-13T05:09:09.229Z,35328.00
2018-07-13T05:10:09.234Z,35648.00
2018-07-13T05:11:09.239Z,36704.00
2018-07-13T05:12:09.247Z,37216.00
2018-07-13T05:13:09.247Z,33952.00
2018-07-13T05:14:09.254Z,34240.00
2018-07-13T05:15:09.258Z,30048.00
2018-07-13T05:16:09.267Z,11868.00
2018-07-13T05:17:09.267Z,4260.00
2018-07-13T05:18:09.278Z,4076.00
2018-07-13T05:19:09.284Z,3988.00
2018-07-13T05:20:09.286Z,3928.00
2018-07-13T05:21:09.286Z,3880.00
2018-07-13T05:22:09.296Z,3844.00
2018-07-13T05:23:09.306Z,3808.00
2018-07-13T05:24:09.302Z,3788.00
2018-07-13T05:25:09.309Z,3772.00
2018-07-13T05:26:09.328Z,3752.00
2018-07-13T05:27:09.317Z,3740.00
2018-07-13T05:28:09.316Z,3724.00
2018-07-13T05:29:09.318Z,3720.00
2018-07-13T05:30:09.322Z,3708.00
2018-07-13T05:31:09.324Z,3704.00
2018-07-13T05:32:09.328Z,3696.00
2018-07-13T05:33:09.342Z,3684.00
2018-07-13T05:34:09.334Z,3672.00
2018-07-13T05:35:09.343Z,3656.00
2018-07-13T05:36:09.338Z,3648.00
2018-07-13T05:37:09.341Z,3640.00
2018-07-13T05:38:09.350Z,3632.00
2018-07-13T05:39:09.348Z,3624.00
2018-07-13T05:40:09.347Z,3620.00
2018-07-13T05:41:09.352Z,3608.00
2018-07-13T05:42:09.349Z,3592.00
2018-07-13T05:43:09.354Z,3584.00
2018-07-13T05:44:09.351Z,3568.00
2018-07-13T05:45:09.352Z,3568.00
2018-07-13T05:46:09.358Z,3556.00
2018-07-13T05:47:09.368Z,3560.00
2018-07-13T05:48:09.353Z,3536.00
2018-07-13T05:49:09.362Z,3520.00
2018-07-13T05:50:09.358Z,3504.00
2018-07-13T05:51:09.370Z,3488.00
2018-07-13T05:52:09.368Z,3476.00
2018-07-13T05:53:09.374Z,3456.00
2018-07-13T05:54:09.360Z,3440.00
2018-07-13T05:55:09.370Z,3420.00
2018-07-13T05:56:09.360Z,3408.00
2018-07-13T05:57:09.363Z,3400.00
2018-07-13T05:58:09.375Z,3384.00
2018-07-13T05:59:09.367Z,3360.00
2018-07-13T06:00:09.372Z,3348.00
2018-07-13T06:01:09.364Z,3328.00
2018-07-13T06:02:09.369Z,3324.00
2018-07-13T06:03:09.368Z,3304.00
2018-07-13T06:04:09.364Z,3300.00
2018-07-13T06:05:09.364Z,3304.00
2018-07-13T06:06:09.365Z,3300.00
2018-07-13T06:07:09.375Z,3288.00
2018-07-13T06:08:09.366Z,3288.00
2018-07-13T06:09:09.370Z,3280.00
2018-07-13T06:10:09.370Z,3276.00
2018-07-13T06:11:09.367Z,3272.00
2018-07-13T06:12:09.367Z,3264.00
2018-07-13T06:13:09.369Z,3256.00
2018-07-13T06:14:09.365Z,3252.00
2018-07-13T06:15:09.418Z,3244.00
2018-07-13T06:16:09.367Z,3240.00
2018-07-13T06:17:09.368Z,3236.00
2018-07-13T06:18:09.374Z,3228.00
2018-07-13T06:19:09.376Z,3224.00
2018-07-13T06:20:09.378Z,3216.00
2018-07-13T06:21:09.368Z,3216.00
2018-07-13T06:22:09.374Z,3212.00
2018-07-13T06:23:09.373Z,3204.00
2018-07-13T06:24:09.385Z,3200.00
2018-07-13T06:25:09.372Z,3196.00
2018-07-13T06:26:09.376Z,3188.00
2018-07-13T06:27:09.369Z,3184.00
2018-07-13T06:28:09.381Z,3172.00
2018-07-13T06:29:09.379Z,3168.00
2018-07-13T06:30:09.392Z,3164.00
2018-07-13T06:31:09.369Z,3156.00
2018-07-13T06:32:09.380Z,3148.00
2018-07-13T06:33:09.372Z,3144.00
2018-07-13T06:34:09.381Z,3136.00
2018-07-13T06:35:09.376Z,3128.00
2018-07-13T06:36:09.385Z,3124.00
2018-07-13T06:37:09.382Z,3116.00
2018-07-13T06:38:09.378Z,3108.00
2018-07-13T06:39:09.404Z,3108.00
2018-07-13T06:40:09.381Z,3100.00
2018-07-13T06:41:09.374Z,3096.00
2018-07-13T06:42:09.373Z,3088.00
2018-07-13T06:43:09.372Z,3084.00
2018-07-13T06:44:09.383Z,3076.00
2018-07-13T06:45:09.374Z,3072.00
2018-07-13T06:46:09.375Z,3068.00
2018-07-13T06:47:09.374Z,3064.00
2018-07-13T06:48:09.378Z,3052.00
2018-07-13T06:49:09.387Z,3048.00
2018-07-13T06:50:09.375Z,3040.00
2018-07-13T06:51:09.384Z,3040.00
2018-07-13T06:52:09.386Z,3024.00
2018-07-13T06:53:09.383Z,3020.00
2018-07-13T06:54:09.378Z,3008.00
2018-07-13T06:55:09.385Z,3000.00
2018-07-13T06:56:09.380Z,2992.00
2018-07-13T06:57:09.379Z,2980.00
2018-07-13T06:58:09.394Z,2972.00
2018-07-13T06:59:09.383Z,2972.00
2018-07-13T07:00:09.381Z,2960.00
2018-07-13T07:01:09.391Z,2952.00
2018-07-13T07:02:09.383Z,2944.00
2018-07-13T07:03:09.383Z,2940.00
2018-07-13T07:04:09.398Z,2928.00
2018-07-13T07:05:09.384Z,2920.00
2018-07-13T07:06:09.389Z,2912.00
2018-07-13T07:07:09.392Z,2896.00
2018-07-13T07:08:09.389Z,2884.00
2018-07-13T07:09:09.398Z,2876.00
2018-07-13T07:10:09.401Z,2864.00
2018-07-13T07:11:09.398Z,2856.00
2018-07-13T07:12:09.390Z,2848.00
2018-07-13T07:13:09.400Z,2840.00
2018-07-13T07:14:09.391Z,2828.00
2018-07-13T07:15:09.496Z,2820.00
2018-07-13T07:16:09.406Z,2812.00
2018-07-13T07:17:09.486Z,2804.00
2018-07-13T07:18:09.396Z,2792.00
2018-07-13T07:19:09.406Z,2784.00
2018-07-13T07:20:09.398Z,2776.00
2018-07-13T07:21:09.400Z,2764.00
2018-07-13T07:22:09.399Z,2752.00
2018-07-13T07:23:09.399Z,2740.00
2018-07-13T07:24:09.407Z,2732.00
2018-07-13T07:25:09.403Z,2720.00
2018-07-13T07:26:09.405Z,2712.00
2018-07-13T07:27:09.405Z,2708.00
2018-07-13T07:28:09.407Z,2696.00
2018-07-13T07:29:09.420Z,2692.00
2018-07-13T07:30:09.422Z,2680.00
2018-07-13T07:31:09.412Z,2680.00
2018-07-13T07:32:09.421Z,2676.00
2018-07-13T07:33:09.413Z,2668.00
2018-07-13T07:34:09.414Z,2656.00
2018-07-13T07:35:09.416Z,2656.00
2018-07-13T07:36:09.422Z,2652.00
2018-07-13T07:37:09.421Z,2644.00
2018-07-13T07:38:09.419Z,2644.00
2018-07-13T07:39:09.423Z,2640.00
2018-07-13T07:40:09.423Z,2636.00
2018-07-13T07:41:09.424Z,2628.00
2018-07-13T07:42:09.426Z,2628.00
2018-07-13T07:43:09.432Z,2620.00
2018-07-13T07:44:09.428Z,2620.00
2018-07-13T07:45:09.430Z,2616.00
2018-07-13T07:46:09.435Z,2612.00
2018-07-13T07:47:09.437Z,2608.00
2018-07-13T07:48:09.436Z,2604.00
2018-07-13T07:49:09.441Z,2604.00
2018-07-13T07:50:09.440Z,2600.00
2018-07-13T07:51:09.442Z,2592.00
2018-07-13T07:52:09.442Z,2592.00
2018-07-13T07:53:09.459Z,2592.00
2018-07-13T07:54:09.458Z,2584.00
2018-07-13T07:55:09.454Z,2576.00
2018-07-13T07:56:09.448Z,2572.00
2018-07-13T07:57:09.461Z,2568.00
2018-07-13T07:58:09.452Z,2564.00
2018-07-13T07:59:09.456Z,2560.00
2018-07-13T08:00:09.470Z,2556.00
2018-07-13T08:01:09.457Z,2552.00
2018-07-13T08:02:09.470Z,2552.00
2018-07-13T08:03:09.475Z,2548.00
2018-07-13T08:04:09.468Z,2548.00
2018-07-13T08:05:09.466Z,2536.00
2018-07-13T08:06:09.577Z,2536.00
2018-07-13T08:07:09.969Z,2528.00
2018-07-13T08:08:09.471Z,2532.00
2018-07-13T08:09:09.475Z,2528.00
2018-07-13T08:10:09.480Z,2520.00
2018-07-13T08:11:09.477Z,2520.00
2018-07-13T08:12:09.489Z,2512.00
2018-07-13T08:13:09.484Z,2508.00
2018-07-13T08:14:09.660Z,2500.00
2018-07-13T08:15:09.491Z,2496.00
2018-07-13T08:16:09.507Z,2492.00
2018-07-13T08:17:09.525Z,2484.00
2018-07-13T08:18:09.508Z,2480.00
2018-07-13T08:19:09.506Z,2476.00
2018-07-13T08:20:09.506Z,2472.00
2018-07-13T08:21:09.508Z,2468.00
2018-07-13T08:22:09.504Z,2464.00
2018-07-13T08:23:09.508Z,2456.00
2018-07-13T08:24:09.509Z,2448.00
2018-07-13T08:25:09.519Z,2440.00
2018-07-13T08:26:09.511Z,2440.00
2018-07-13T08:27:09.516Z,2428.00
2018-07-13T08:28:09.517Z,2420.00
2018-07-13T08:29:09.530Z,2412.00
2018-07-13T08:30:09.520Z,2412.00
2018-07-13T08:31:09.532Z,2408.00
2018-07-13T08:32:09.618Z,2404.00
2018-07-13T08:33:09.533Z,2400.00
2018-07-13T08:34:09.638Z,2392.00
2018-07-13T08:35:09.536Z,2388.00
2018-07-13T08:36:09.535Z,2392.00
2018-07-13T08:37:09.538Z,2388.00
2018-07-13T08:38:09.540Z,2388.00
2018-07-13T08:39:09.544Z,2380.00
2018-07-13T08:40:09.546Z,2376.00
2018-07-13T08:41:09.547Z,2372.00
2018-07-13T08:42:09.550Z,2364.00
2018-07-13T08:43:09.553Z,2368.00
2018-07-13T08:44:09.665Z,2360.00
2018-07-13T08:45:09.562Z,2352.00
2018-07-13T08:46:09.565Z,2348.00
2018-07-13T08:47:09.576Z,2340.00
2018-07-13T08:48:09.565Z,2336.00
2018-07-13T08:49:09.590Z,2328.00
2018-07-13T08:50:09.572Z,2328.00
2018-07-13T08:51:09.583Z,2324.00
2018-07-13T08:52:09.580Z,2316.00
2018-07-13T08:53:09.581Z,2316.00
2018-07-13T08:54:09.585Z,2316.00
2018-07-13T08:55:09.585Z,2312.00
2018-07-13T08:56:09.623Z,2312.00
2018-07-13T08:57:09.600Z,2308.00
2018-07-13T08:58:09.593Z,2308.00
2018-07-13T08:59:09.601Z,2304.00
2018-07-13T09:00:09.600Z,2304.00
2018-07-13T09:01:09.605Z,2300.00
2018-07-13T09:02:09.608Z,2292.00
2018-07-13T09:03:09.616Z,2288.00
2018-07-13T09:04:09.632Z,2288.00
2018-07-13T09:05:09.615Z,2280.00
2018-07-13T09:06:09.626Z,2276.00
2018-07-13T09:07:09.635Z,2272.00
2018-07-13T09:08:09.630Z,2272.00
2018-07-13T09:09:09.634Z,2264.00
2018-07-13T09:10:09.631Z,2256.00
2018-07-13T09:11:09.644Z,2256.00
2018-07-13T09:12:09.633Z,2252.00
2018-07-13T09:13:09.644Z,2248.00
2018-07-13T09:14:09.642Z,2248.00
2018-07-13T09:15:09.643Z,2244.00
2018-07-13T09:16:09.655Z,2240.00
2018-07-13T09:17:09.693Z,2244.00
2018-07-13T09:18:09.716Z,2244.00
2018-07-13T09:19:09.662Z,2240.00
2018-07-13T09:20:09.659Z,2248.00
2018-07-13T09:21:09.662Z,2240.00
2018-07-13T09:22:09.670Z,2232.00
2018-07-13T09:23:09.682Z,2228.00
2018-07-13T09:24:09.699Z,2220.00
2018-07-13T09:25:09.673Z,2220.00
2018-07-13T09:26:09.676Z,2216.00
2018-07-13T09:27:09.694Z,2216.00
2018-07-13T09:28:09.682Z,2212.00
2018-07-13T09:29:09.696Z,2212.00
2018-07-13T09:30:09.692Z,2208.00
2018-07-13T09:31:09.703Z,2208.00
2018-07-13T09:32:09.700Z,2208.00
2018-07-13T09:33:09.727Z,2208.00
2018-07-13T09:34:09.701Z,2208.00
2018-07-13T09:35:09.712Z,2208.00
2018-07-13T09:36:09.709Z,2208.00
2018-07-13T09:37:09.724Z,2208.00
2018-07-13T09:38:09.720Z,2208.00
2018-07-13T09:39:09.723Z,2204.00
2018-07-13T09:40:09.729Z,2200.00
2018-07-13T09:41:09.731Z,2204.00
2018-07-13T09:42:09.729Z,2204.00
2018-07-13T09:43:09.741Z,2200.00
2018-07-13T09:44:09.740Z,2200.00
2018-07-13T09:45:09.741Z,2200.00
2018-07-13T09:46:09.748Z,2200.00
2018-07-13T09:47:09.752Z,2204.00
2018-07-13T09:48:09.753Z,2208.00
2018-07-13T09:49:09.753Z,2204.00
2018-07-13T09:50:09.762Z,2200.00
2018-07-13T09:51:09.767Z,2200.00
2018-07-13T09:52:09.764Z,2204.00
2018-07-13T09:53:09.775Z,2208.00
2018-07-13T09:54:09.909Z,2208.00
2018-07-13T09:55:09.783Z,2212.00
2018-07-13T09:56:09.788Z,2212.00
2018-07-13T09:57:09.787Z,2212.00
2018-07-13T09:58:09.793Z,2224.00
2018-07-13T09:59:09.795Z,2224.00
2018-07-13T10:00:09.801Z,2228.00
2018-07-13T10:01:09.796Z,2232.00
2018-07-13T10:02:09.814Z,2228.00
2018-07-13T10:03:09.811Z,2228.00
2018-07-13T10:04:09.808Z,2232.00
2018-07-13T10:05:09.816Z,2236.00
2018-07-13T10:06:09.814Z,2236.00
2018-07-13T10:07:09.824Z,2236.00
2018-07-13T10:08:09.824Z,2232.00
2018-07-13T10:09:09.827Z,2236.00
2018-07-13T10:10:09.832Z,2224.00
2018-07-13T10:11:09.836Z,2224.00
2018-07-13T10:12:09.839Z,2220.00
2018-07-13T10:13:09.848Z,2224.00
2018-07-13T10:14:09.862Z,2228.00
2018-07-13T10:15:09.850Z,2220.00
2018-07-13T10:16:09.866Z,2196.00
2018-07-13T10:17:09.867Z,2192.00
2018-07-13T10:18:09.864Z,2184.00
2018-07-13T10:19:09.875Z,2192.00
2018-07-13T10:20:09.869Z,2180.00
2018-07-13T10:21:09.886Z,2192.00
2018-07-13T10:22:09.881Z,2212.00
2018-07-13T10:23:09.882Z,2228.00
2018-07-13T10:24:09.893Z,2240.00
2018-07-13T10:25:09.893Z,2232.00
2018-07-13T10:26:09.893Z,2232.00
2018-07-13T10:27:09.912Z,2248.00
2018-07-13T10:28:09.898Z,2256.00
2018-07-13T10:29:09.943Z,2272.00
2018-07-13T10:30:09.911Z,2292.00
2018-07-13T10:31:09.926Z,2316.00
2018-07-13T10:32:09.920Z,2328.00
2018-07-13T10:33:09.918Z,2328.00
2018-07-13T10:34:09.930Z,2328.00
2018-07-13T10:35:09.931Z,2332.00
2018-07-13T10:36:09.935Z,2328.00
2018-07-13T10:37:09.944Z,2320.00
2018-07-13T10:38:09.943Z,2300.00
2018-07-13T10:39:09.947Z,2288.00
2018-07-13T10:40:09.954Z,2292.00
2018-07-13T10:41:09.955Z,2300.00
2018-07-13T10:42:09.968Z,2300.00
2018-07-13T10:43:09.964Z,2316.00
2018-07-13T10:44:09.974Z,2332.00
2018-07-13T10:45:09.975Z,2356.00
2018-07-13T10:46:09.980Z,2344.00
2018-07-13T10:47:09.978Z,2364.00
2018-07-13T10:48:09.984Z,2384.00
2018-07-13T10:49:09.990Z,2384.00
2018-07-13T10:50:09.993Z,2372.00
2018-07-13T10:51:10.001Z,2364.00
2018-07-13T10:52:10.009Z,2356.00
2018-07-13T10:53:10.004Z,2352.00
2018-07-13T10:54:10.013Z,2348.00
2018-07-13T10:55:10.013Z,2356.00
2018-07-13T10:56:10.018Z,2364.00
2018-07-13T10:57:10.024Z,2388.00
2018-07-13T10:58:10.032Z,2392.00
2018-07-13T10:59:10.035Z,2404.00
2018-07-13T11:00:10.044Z,2392.00
2018-07-13T11:01:10.050Z,2400.00
2018-07-13T11:02:10.046Z,2424.00
2018-07-13T11:03:10.055Z,2412.00
2018-07-13T11:04:10.060Z,2380.00
2018-07-13T11:05:10.055Z,2368.00
2018-07-13T11:06:10.066Z,2348.00
2018-07-13T11:07:10.065Z,2360.00
2018-07-13T11:08:10.131Z,2376.00
2018-07-13T11:09:10.081Z,2356.00
2018-07-13T11:10:10.077Z,2336.00
2018-07-13T11:11:10.080Z,2340.00
2018-07-13T11:12:10.087Z,2360.00
2018-07-13T11:13:10.099Z,2380.00
2018-07-13T11:14:10.103Z,2392.00
2018-07-13T11:15:10.103Z,2380.00
2018-07-13T11:16:10.114Z,2392.00
2018-07-13T11:17:10.107Z,2420.00
2018-07-13T11:18:10.118Z,2440.00
2018-07-13T11:19:10.115Z,2464.00
2018-07-13T11:20:10.122Z,2472.00
2018-07-13T11:21:10.130Z,2468.00
2018-07-13T11:22:10.139Z,2492.00
2018-07-13T11:23:10.134Z,2520.00
2018-07-13T11:24:10.181Z,2492.00
2018-07-13T11:25:10.147Z,2468.00
2018-07-13T11:26:10.154Z,2448.00
2018-07-13T11:27:10.150Z,2448.00
2018-07-13T11:28:10.153Z,2432.00
2018-07-13T11:29:10.158Z,2432.00
2018-07-13T11:30:10.165Z,2420.00
2018-07-13T11:31:10.168Z,2408.00
2018-07-13T11:32:10.173Z,2388.00
2018-07-13T11:33:10.191Z,2380.00
2018-07-13T11:34:10.182Z,2396.00
2018-07-13T11:35:10.200Z,2432.00
2018-07-13T11:36:10.194Z,2456.00
2018-07-13T11:37:10.462Z,2464.00
2018-07-13T11:38:10.209Z,2452.00
2018-07-13T11:39:10.206Z,2436.00
2018-07-13T11:40:10.209Z,2420.00
2018-07-13T11:41:10.214Z,2408.00
2018-07-13T11:42:10.223Z,2424.00
2018-07-13T11:43:10.223Z,2428.00
2018-07-13T11:44:10.261Z,2424.00
2018-07-13T11:45:10.233Z,2436.00
2018-07-13T11:46:10.247Z,2432.00
2018-07-13T11:47:10.243Z,2424.00
2018-07-13T11:48:10.247Z,2428.00
2018-07-13T11:49:10.257Z,2424.00
2018-07-13T11:50:10.266Z,2432.00
2018-07-13T11:51:10.263Z,2444.00
2018-07-13T11:52:10.319Z,2448.00
2018-07-13T11:53:10.280Z,2444.00
2018-07-13T11:54:10.276Z,2448.00
2018-07-13T11:55:10.281Z,2440.00
2018-07-13T11:56:10.301Z,2428.00
2018-07-13T11:57:10.292Z,2432.00
2018-07-13T11:58:10.293Z,2428.00
2018-07-13T11:59:10.299Z,2428.00
2018-07-13T12:00:10.319Z,2432.00
2018-07-13T12:01:10.324Z,2440.00
2018-07-13T12:02:10.319Z,2436.00
2018-07-13T12:03:10.333Z,2424.00
2018-07-13T12:04:10.322Z,2420.00
2018-07-13T12:05:10.327Z,2424.00
2018-07-13T12:06:10.336Z,2428.00
2018-07-13T12:07:10.337Z,2424.00
2018-07-13T12:08:10.341Z,2412.00
2018-07-13T12:09:10.348Z,2420.00
2018-07-13T12:10:10.351Z,2432.00
2018-07-13T12:11:10.362Z,2440.00
2018-07-13T12:12:10.362Z,2464.00
2018-07-13T12:13:10.364Z,2464.00
2018-07-13T12:14:10.375Z,2456.00
2018-07-13T12:15:10.375Z,2456.00
2018-07-13T12:16:10.385Z,2176.00
2018-07-13T12:17:10.392Z,2424.00
2018-07-13T12:18:10.397Z,2424.00
2018-07-13T12:19:10.400Z,2436.00
2018-07-13T12:20:10.403Z,2464.00
2018-07-13T12:21:10.413Z,2472.00
2018-07-13T12:22:10.421Z,2464.00
2018-07-13T12:23:10.469Z,2448.00
2018-07-13T12:24:10.416Z,2436.00